Nottely Observed Data For Previous 48 Hours

Caption
Day and Hour Reservoir Elevation (behind dam)* Tailwater Elevation (below dam)* Average Hourly Discharge*
11/17/2017 2 AM EST 1,762.66 1,611.11 1,342
11/17/2017 3 AM EST 1,762.62 1,611.10 1,343
11/17/2017 4 AM EST 1,762.59 1,611.10 1,341
11/17/2017 5 AM EST 1,762.56 1,611.14 1,342
11/17/2017 6 AM EST 1,762.53 1,611.09 1,339
11/17/2017 7 AM EST 1,762.49 1,611.12 1,345
11/17/2017 8 AM EST 1,762.50 1,607.20 153
11/17/2017 9 AM EST 1,762.50 1,607.13 55
11/17/2017 10 AM EST 1,762.50 1,607.13 61
11/17/2017 11 AM EST 1,762.50 1,607.13 63
11/17/2017 12 PM EST 1,762.50 1,607.13 62
11/17/2017 1 PM EST 1,762.51 1,607.13 63
11/17/2017 2 PM EST 1,762.51 1,607.13 62
11/17/2017 3 PM EST 1,762.52 1,607.13 63
11/17/2017 4 PM EST 1,762.52 1,607.13 69
11/17/2017 5 PM EST 1,762.52 1,607.13 62
11/17/2017 6 PM EST 1,762.53 1,607.13 63
11/17/2017 7 PM EST 1,762.52 1,610.82 197
11/17/2017 8 PM EST 1,762.50 1,611.11 1,349
11/17/2017 9 PM EST 1,762.46 1,611.12 1,347
11/17/2017 10 PM EST 1,762.43 1,611.10 1,349
11/17/2017 11 PM EST 1,762.43 1,607.21 141
11/18/2017 12 AM EST 1,762.43 1,607.21 63
11/18/2017 1 AM EST 1,762.44 1,607.21 62
11/18/2017 2 AM EST 1,762.44 1,607.21 63
11/18/2017 3 AM EST 1,762.45 1,607.21 62
11/18/2017 4 AM EST 1,762.44 1,607.21 63
11/18/2017 5 AM EST 1,762.45 1,607.21 62
11/18/2017 6 AM EST 1,762.46 1,607.21 63
11/18/2017 7 AM EST 1,762.46 1,607.21 62
11/18/2017 8 AM EST 1,762.47 1,607.21 63
11/18/2017 9 AM EST 1,762.47 1,607.21 62
11/18/2017 10 AM EST 1,762.48 1,607.21 63
11/18/2017 11 AM EST 1,762.48 1,607.21 63
11/18/2017 12 PM EST 1,762.48 1,607.21 62
11/18/2017 1 PM EST 1,762.48 1,607.21 63
11/18/2017 2 PM EST - 999.00 - 999.00 63
11/18/2017 3 PM EST 1,762.48 1,607.21 63
11/18/2017 4 PM EST 1,762.50 1,607.21 62
11/18/2017 5 PM EST 1,762.50 1,607.21 63
11/18/2017 6 PM EST 1,762.50 1,607.21 62
11/18/2017 7 PM EST 1,762.49 1,610.78 183
11/18/2017 8 PM EST 1,762.47 1,611.12 1,352
11/18/2017 9 PM EST 1,762.44 1,611.13 1,360
11/18/2017 10 PM EST 1,762.39 1,611.10 1,359
11/18/2017 11 PM EST - 999.00 - 999.00 711
11/19/2017 12 AM EST 1,762.42 1,607.19 62
11/19/2017 1 AM EST 1,762.46 1,607.19 63
11/19/2017 2 AM EST 1,762.45 1,607.19 62
11/19/2017 3 AM EST 1,762.47 1,607.19 63
11/19/2017 4 AM EST 1,762.45 1,607.19 63

Elevations are in feet above sea level. Discharges are in cubic feet per second and are reported at the end of the hour.